Wetterdaten der Wetterstation 58769 Nachrodt-Wiblingwerde

Letzte Wetterlage 23.11.2014 11:34
Wetterdiagramm
Tabellarische Darstellung
Datum Temperatur Windchill Feuchte Luftdruck Windrichtung Windstärke Niederschlag
23.11.2014 11:44 12,2 °C 12,2 °C 82 % 1017,0 hPa 315 0.7 0,00 mm
23.11.2014 11:34 11,9 °C 11,9 °C 83 % 1017,3 hPa 315 0.3 0,00 mm
23.11.2014 11:24 11,7 °C 11,7 °C 84 % 1017,2 hPa 0 0.3 0,00 mm
23.11.2014 11:14 11,3 °C 11,3 °C 84 % 1017,5 hPa 315 1.4 0,00 mm
23.11.2014 11:04 10,8 °C 10,8 °C 86 % 1017,5 hPa 0 0.7 0,00 mm
23.11.2014 10:59 10,6 °C 10,6 °C 86 % 1017,5 hPa 0 0.3 0,00 mm
23.11.2014 10:54 10,4 °C 10,4 °C 86 % 1017,4 hPa 315 0.3 0,00 mm
23.11.2014 10:44 10,1 °C 10,1 °C 87 % 1017,6 hPa 135 0.7 0,00 mm
23.11.2014 10:34 9,8 °C 9,8 °C 89 % 1017,7 hPa 0 0.7 0,00 mm
23.11.2014 10:24 9,3 °C 9,3 °C 89 % 1017,6 hPa 0 1.0 0,00 mm
23.11.2014 10:14 8,9 °C 8,9 °C 90 % 1017,6 hPa 45 0.3 0,00 mm
23.11.2014 10:04 8,5 °C 8,5 °C 89 % 1017,8 hPa 45 0.3 0,00 mm
23.11.2014 09:54 8,4 °C 8,4 °C 89 % 1017,9 hPa 45 0.3 0,00 mm
23.11.2014 09:44 8,1 °C 8,1 °C 89 % 1017,8 hPa 180 0.3 0,00 mm
23.11.2014 09:34 8,0 °C 8,0 °C 89 % 1017,9 hPa 180 0.0 0,00 mm
23.11.2014 09:24 8,1 °C 8,1 °C 89 % 1017,8 hPa 180 0.0 0,00 mm
23.11.2014 09:14 8,2 °C 8,2 °C 89 % 1017,9 hPa 293 0.7 0,00 mm
23.11.2014 09:04 8,4 °C 8,4 °C 89 % 1017,9 hPa 270 0.3 0,00 mm
23.11.2014 08:59 8,6 °C 8,6 °C 89 % 1018,0 hPa 270 0.0 0,00 mm
23.11.2014 08:54 8,7 °C 8,7 °C 89 % 1018,0 hPa 270 0.3 0,00 mm
23.11.2014 08:44 8,5 °C 8,5 °C 89 % 1018,0 hPa 270 0.7 0,00 mm
23.11.2014 08:34 8,3 °C 8,3 °C 89 % 1017,8 hPa 315 0.7 0,00 mm
23.11.2014 08:24 8,1 °C 8,1 °C 89 % 1017,8 hPa 315 0.0 0,00 mm
23.11.2014 08:14 8,1 °C 8,1 °C 89 % 1017,9 hPa 180 0.0 0,00 mm
23.11.2014 08:04 8,5 °C 8,5 °C 89 % 1017,6 hPa 270 0.0 0,00 mm
Empfehlen Sie wetter.com
| Mehr
Neue Wetterwarnung

Neue Niederschlagsmeldung
Neue Meldung
Regen Liveticker
    sehr starker Regen/Gewitter
    starker Regen/Gewitter
    mäßiger bis starker Regen
    mäßiger Regen
    leichter bis mäßiger Regen
    kein Regen